Terminal Aerodrome Forecast
Issued by NWS

Home | Current Version | Previous Version | Text Only | Print | Product List | Glossary Off
Versions: 1 2 3 4 5 6 7 8 9 10 11 12 13 14 15 16 17 18 19 20 21 22

000
FTUS43 KGRB 191700
TAFAUW
TAF
KAUW 191736Z 1918/2018 28012G24KT P6SM -SHSN SCT016 BKN025
      TEMPO 1918/1919 4SM -SN BKN016 OVC025
     FM192200 27010G19KT P6SM BKN025 BKN040
     FM200200 28011KT P6SM BKN035
     FM201300 29012KT P6SM BKN040
     FM201500 30014G20KT P6SM SCT035
      TEMPO 2015/2018 BKN035=

USA.gov is the U.S. government's official web portal to all federal, state and local government web resources and services.